sensor_id;sensor_type;location;lat;lon;timestamp;temperature;humidity
61201;DHT22;47065;52.898;6.992;2024-01-15T00:01:16;1.70;99.90
61201;DHT22;47065;52.898;6.992;2024-01-15T00:03:42;1.70;99.90
61201;DHT22;47065;52.898;6.992;2024-01-15T00:06:08;1.70;99.90
61201;DHT22;47065;52.898;6.992;2024-01-15T00:08:33;1.70;99.90
61201;DHT22;47065;52.898;6.992;2024-01-15T00:10:59;1.70;99.90
61201;DHT22;47065;52.898;6.992;2024-01-15T00:13:24;1.70;99.90
61201;DHT22;47065;52.898;6.992;2024-01-15T00:15:50;1.70;99.90
61201;DHT22;47065;52.898;6.992;2024-01-15T00:18:16;1.70;99.90
61201;DHT22;47065;52.898;6.992;2024-01-15T00:20:41;1.70;99.90
61201;DHT22;47065;52.898;6.992;2024-01-15T00:23:07;1.60;99.90
61201;DHT22;47065;52.898;6.992;2024-01-15T00:25:33;1.60;99.90
61201;DHT22;47065;52.898;6.992;2024-01-15T00:27:59;1.60;99.90
61201;DHT22;47065;52.898;6.992;2024-01-15T00:30:24;1.70;99.90
61201;DHT22;47065;52.898;6.992;2024-01-15T00:32:50;1.60;99.90
61201;DHT22;47065;52.898;6.992;2024-01-15T00:35:16;1.70;99.90
61201;DHT22;47065;52.898;6.992;2024-01-15T00:37:41;1.70;99.90
61201;DHT22;47065;52.898;6.992;2024-01-15T00:40:07;1.70;99.90
61201;DHT22;47065;52.898;6.992;2024-01-15T00:42:33;1.70;99.90
61201;DHT22;47065;52.898;6.992;2024-01-15T00:44:59;1.70;99.90
61201;DHT22;47065;52.898;6.992;2024-01-15T00:47:25;1.80;99.90
61201;DHT22;47065;52.898;6.992;2024-01-15T00:49:50;1.80;99.90
61201;DHT22;47065;52.898;6.992;2024-01-15T00:52:16;1.70;99.90
61201;DHT22;47065;52.898;6.992;2024-01-15T00:54:42;1.80;99.90
61201;DHT22;47065;52.898;6.992;2024-01-15T00:57:07;1.80;99.90
61201;DHT22;47065;52.898;6.992;2024-01-15T00:59:33;1.80;99.90
61201;DHT22;47065;52.898;6.992;2024-01-15T01:01:58;1.80;99.90
61201;DHT22;47065;52.898;6.992;2024-01-15T01:04:24;1.80;99.90
61201;DHT22;47065;52.898;6.992;2024-01-15T01:06:50;1.70;99.90
61201;DHT22;47065;52.898;6.992;2024-01-15T01:09:15;1.80;99.90
61201;DHT22;47065;52.898;6.992;2024-01-15T01:11:41;1.70;99.90
61201;DHT22;47065;52.898;6.992;2024-01-15T01:14:07;1.70;99.90
61201;DHT22;47065;52.898;6.992;2024-01-15T01:16:32;1.70;99.90
61201;DHT22;47065;52.898;6.992;2024-01-15T01:19:07;1.60;99.90
61201;DHT22;47065;52.898;6.992;2024-01-15T01:21:33;1.60;99.90
61201;DHT22;47065;52.898;6.992;2024-01-15T01:23:59;1.60;99.90
61201;DHT22;47065;52.898;6.992;2024-01-15T01:26:25;1.60;99.90
61201;DHT22;47065;52.898;6.992;2024-01-15T01:28:50;1.60;99.90
61201;DHT22;47065;52.898;6.992;2024-01-15T01:31:16;1.50;99.90
61201;DHT22;47065;52.898;6.992;2024-01-15T01:33:42;1.40;99.90
61201;DHT22;47065;52.898;6.992;2024-01-15T01:36:10;1.40;99.90
61201;DHT22;47065;52.898;6.992;2024-01-15T01:38:37;1.30;99.90
61201;DHT22;47065;52.898;6.992;2024-01-15T01:41:03;1.30;99.90
61201;DHT22;47065;52.898;6.992;2024-01-15T01:43:29;1.20;99.90
61201;DHT22;47065;52.898;6.992;2024-01-15T01:45:56;1.20;99.90
61201;DHT22;47065;52.898;6.992;2024-01-15T01:48:25;1.20;99.90
61201;DHT22;47065;52.898;6.992;2024-01-15T01:50:56;1.20;99.90
61201;DHT22;47065;52.898;6.992;2024-01-15T01:53:22;1.20;99.90
61201;DHT22;47065;52.898;6.992;2024-01-15T01:55:49;1.20;99.90
61201;DHT22;47065;52.898;6.992;2024-01-15T01:58:15;1.20;99.90
61201;DHT22;47065;52.898;6.992;2024-01-15T02:00:41;1.20;99.90
61201;DHT22;47065;52.898;6.992;2024-01-15T02:03:07;1.30;99.90
61201;DHT22;47065;52.898;6.992;2024-01-15T02:05:34;1.30;99.90
61201;DHT22;47065;52.898;6.992;2024-01-15T02:08:00;1.30;99.90
61201;DHT22;47065;52.898;6.992;2024-01-15T02:10:26;1.30;99.90
61201;DHT22;47065;52.898;6.992;2024-01-15T02:12:51;1.30;99.90
61201;DHT22;47065;52.898;6.992;2024-01-15T02:15:17;1.30;99.90
61201;DHT22;47065;52.898;6.992;2024-01-15T02:18:03;1.30;99.90
61201;DHT22;47065;52.898;6.992;2024-01-15T02:20:30;1.30;99.90
61201;DHT22;47065;52.898;6.992;2024-01-15T02:23:22;1.40;99.90
61201;DHT22;47065;52.898;6.992;2024-01-15T02:25:47;1.40;99.90
61201;DHT22;47065;52.898;6.992;2024-01-15T02:28:17;1.40;99.90
61201;DHT22;47065;52.898;6.992;2024-01-15T02:30:43;1.40;99.90
61201;DHT22;47065;52.898;6.992;2024-01-15T02:33:10;1.40;99.90
61201;DHT22;47065;52.898;6.992;2024-01-15T02:35:36;1.40;99.90
61201;DHT22;47065;52.898;6.992;2024-01-15T02:38:05;1.40;99.90
61201;DHT22;47065;52.898;6.992;2024-01-15T02:40:31;1.40;99.90
61201;DHT22;47065;52.898;6.992;2024-01-15T02:42:56;1.30;99.90
61201;DHT22;47065;52.898;6.992;2024-01-15T02:45:23;1.40;99.90
61201;DHT22;47065;52.898;6.992;2024-01-15T02:47:49;1.30;99.90
61201;DHT22;47065;52.898;6.992;2024-01-15T02:50:15;1.30;99.90
61201;DHT22;47065;52.898;6.992;2024-01-15T02:52:41;1.30;99.90
61201;DHT22;47065;52.898;6.992;2024-01-15T02:55:08;1.30;99.90
61201;DHT22;47065;52.898;6.992;2024-01-15T02:57:33;1.30;99.90
61201;DHT22;47065;52.898;6.992;2024-01-15T02:59:59;1.30;99.90
61201;DHT22;47065;52.898;6.992;2024-01-15T03:02:25;1.40;99.90
61201;DHT22;47065;52.898;6.992;2024-01-15T03:04:50;1.40;99.90
61201;DHT22;47065;52.898;6.992;2024-01-15T03:07:16;1.40;99.90
61201;DHT22;47065;52.898;6.992;2024-01-15T03:09:42;1.40;99.90
61201;DHT22;47065;52.898;6.992;2024-01-15T03:12:07;1.40;99.90
61201;DHT22;47065;52.898;6.992;2024-01-15T03:14:33;1.40;99.90
61201;DHT22;47065;52.898;6.992;2024-01-15T03:16:59;1.40;99.90
61201;DHT22;47065;52.898;6.992;2024-01-15T03:19:26;1.40;99.90
61201;DHT22;47065;52.898;6.992;2024-01-15T03:21:51;1.50;99.90
61201;DHT22;47065;52.898;6.992;2024-01-15T03:24:17;1.50;99.90
61201;DHT22;47065;52.898;6.992;2024-01-15T03:26:43;1.50;99.90
61201;DHT22;47065;52.898;6.992;2024-01-15T03:29:08;1.50;99.90
61201;DHT22;47065;52.898;6.992;2024-01-15T03:31:34;1.50;99.90
61201;DHT22;47065;52.898;6.992;2024-01-15T03:34:00;1.60;99.90
61201;DHT22;47065;52.898;6.992;2024-01-15T03:36:25;1.50;99.90
61201;DHT22;47065;52.898;6.992;2024-01-15T03:38:51;1.50;99.90
61201;DHT22;47065;52.898;6.992;2024-01-15T03:41:16;1.60;99.90
61201;DHT22;47065;52.898;6.992;2024-01-15T03:43:42;1.50;99.90
61201;DHT22;47065;52.898;6.992;2024-01-15T03:46:08;1.50;99.90
61201;DHT22;47065;52.898;6.992;2024-01-15T03:48:33;1.50;99.90
61201;DHT22;47065;52.898;6.992;2024-01-15T03:50:59;1.60;99.90
61201;DHT22;47065;52.898;6.992;2024-01-15T03:53:24;1.60;99.90
61201;DHT22;47065;52.898;6.992;2024-01-15T03:55:50;1.60;99.90
61201;DHT22;47065;52.898;6.992;2024-01-15T03:58:16;1.60;99.90
61201;DHT22;47065;52.898;6.992;2024-01-15T04:00:42;1.60;99.90
61201;DHT22;47065;52.898;6.992;2024-01-15T04:03:08;1.60;99.90
61201;DHT22;47065;52.898;6.992;2024-01-15T04:05:34;1.60;99.90
61201;DHT22;47065;52.898;6.992;2024-01-15T04:08:00;1.60;99.90
61201;DHT22;47065;52.898;6.992;2024-01-15T04:10:25;1.60;99.90
61201;DHT22;47065;52.898;6.992;2024-01-15T04:12:51;1.60;99.90
61201;DHT22;47065;52.898;6.992;2024-01-15T04:15:16;1.70;99.90
61201;DHT22;47065;52.898;6.992;2024-01-15T04:17:42;1.70;99.90
61201;DHT22;47065;52.898;6.992;2024-01-15T04:20:08;1.70;99.90
61201;DHT22;47065;52.898;6.992;2024-01-15T04:22:35;1.70;99.90
61201;DHT22;47065;52.898;6.992;2024-01-15T04:25:01;1.70;99.90
61201;DHT22;47065;52.898;6.992;2024-01-15T04:27:27;1.60;99.90
61201;DHT22;47065;52.898;6.992;2024-01-15T04:29:53;1.60;99.90
61201;DHT22;47065;52.898;6.992;2024-01-15T04:32:19;1.60;99.90
61201;DHT22;47065;52.898;6.992;2024-01-15T04:34:44;1.70;99.90
61201;DHT22;47065;52.898;6.992;2024-01-15T04:37:10;1.70;99.90
61201;DHT22;47065;52.898;6.992;2024-01-15T04:39:36;1.70;99.90
61201;DHT22;47065;52.898;6.992;2024-01-15T04:42:02;1.80;99.90
61201;DHT22;47065;52.898;6.992;2024-01-15T04:44:28;1.80;99.90
61201;DHT22;47065;52.898;6.992;2024-01-15T04:46:54;1.80;99.90
61201;DHT22;47065;52.898;6.992;2024-01-15T04:49:19;1.80;99.90
61201;DHT22;47065;52.898;6.992;2024-01-15T04:51:45;1.80;99.90
61201;DHT22;47065;52.898;6.992;2024-01-15T04:54:10;1.80;99.90
61201;DHT22;47065;52.898;6.992;2024-01-15T04:56:37;1.90;99.90
61201;DHT22;47065;52.898;6.992;2024-01-15T04:59:02;1.90;99.90
61201;DHT22;47065;52.898;6.992;2024-01-15T05:01:32;1.90;99.90
61201;DHT22;47065;52.898;6.992;2024-01-15T05:03:58;1.90;99.90
61201;DHT22;47065;52.898;6.992;2024-01-15T05:06:24;1.90;99.90
61201;DHT22;47065;52.898;6.992;2024-01-15T05:08:49;1.80;99.90
61201;DHT22;47065;52.898;6.992;2024-01-15T05:11:15;1.70;99.90
61201;DHT22;47065;52.898;6.992;2024-01-15T05:13:40;1.70;99.90
61201;DHT22;47065;52.898;6.992;2024-01-15T05:16:06;1.60;99.90
61201;DHT22;47065;52.898;6.992;2024-01-15T05:18:32;1.60;99.90
61201;DHT22;47065;52.898;6.992;2024-01-15T05:20:57;1.50;99.90
61201;DHT22;47065;52.898;6.992;2024-01-15T05:23:23;1.50;99.90
61201;DHT22;47065;52.898;6.992;2024-01-15T05:25:49;1.40;99.90
61201;DHT22;47065;52.898;6.992;2024-01-15T05:28:14;1.40;99.90
61201;DHT22;47065;52.898;6.992;2024-01-15T05:30:40;1.30;99.90
61201;DHT22;47065;52.898;6.992;2024-01-15T05:33:06;1.30;99.90
61201;DHT22;47065;52.898;6.992;2024-01-15T05:35:33;1.20;99.90
61201;DHT22;47065;52.898;6.992;2024-01-15T05:37:59;1.20;99.90
61201;DHT22;47065;52.898;6.992;2024-01-15T05:40:25;1.20;99.90
61201;DHT22;47065;52.898;6.992;2024-01-15T05:42:50;1.20;99.90
61201;DHT22;47065;52.898;6.992;2024-01-15T05:45:16;1.20;99.90
61201;DHT22;47065;52.898;6.992;2024-01-15T05:47:42;1.10;99.90
61201;DHT22;47065;52.898;6.992;2024-01-15T05:50:09;1.10;99.90
61201;DHT22;47065;52.898;6.992;2024-01-15T05:52:35;1.10;99.90
61201;DHT22;47065;52.898;6.992;2024-01-15T05:55:01;1.10;99.90
61201;DHT22;47065;52.898;6.992;2024-01-15T05:57:26;1.10;99.90
61201;DHT22;47065;52.898;6.992;2024-01-15T05:59:52;1.10;99.90
61201;DHT22;47065;52.898;6.992;2024-01-15T06:02:18;1.20;99.90
61201;DHT22;47065;52.898;6.992;2024-01-15T06:04:43;1.20;99.90
61201;DHT22;47065;52.898;6.992;2024-01-15T06:07:09;1.20;99.90
61201;DHT22;47065;52.898;6.992;2024-01-15T06:09:34;1.30;99.90
61201;DHT22;47065;52.898;6.992;2024-01-15T06:12:00;1.30;99.90
61201;DHT22;47065;52.898;6.992;2024-01-15T06:14:25;1.30;99.90
61201;DHT22;47065;52.898;6.992;2024-01-15T06:16:52;1.40;99.90
61201;DHT22;47065;52.898;6.992;2024-01-15T06:19:17;1.40;99.90
61201;DHT22;47065;52.898;6.992;2024-01-15T06:21:43;1.40;99.90
61201;DHT22;47065;52.898;6.992;2024-01-15T06:24:09;1.40;99.90
61201;DHT22;47065;52.898;6.992;2024-01-15T06:26:35;1.40;99.90
61201;DHT22;47065;52.898;6.992;2024-01-15T06:29:01;1.40;99.90
61201;DHT22;47065;52.898;6.992;2024-01-15T06:31:28;1.40;99.90
61201;DHT22;47065;52.898;6.992;2024-01-15T06:33:54;1.40;99.90
61201;DHT22;47065;52.898;6.992;2024-01-15T06:36:20;1.40;99.90
61201;DHT22;47065;52.898;6.992;2024-01-15T06:38:46;1.30;99.90
61201;DHT22;47065;52.898;6.992;2024-01-15T06:41:11;1.30;99.90
61201;DHT22;47065;52.898;6.992;2024-01-15T06:43:37;1.30;99.90
61201;DHT22;47065;52.898;6.992;2024-01-15T06:46:03;1.30;99.90
61201;DHT22;47065;52.898;6.992;2024-01-15T06:48:28;1.30;99.90
61201;DHT22;47065;52.898;6.992;2024-01-15T06:50:54;1.30;99.90
61201;DHT22;47065;52.898;6.992;2024-01-15T06:53:19;1.30;99.90
61201;DHT22;47065;52.898;6.992;2024-01-15T06:55:46;1.30;99.90
61201;DHT22;47065;52.898;6.992;2024-01-15T06:58:12;1.30;99.90
61201;DHT22;47065;52.898;6.992;2024-01-15T07:00:37;1.30;99.90
61201;DHT22;47065;52.898;6.992;2024-01-15T07:03:03;1.30;99.90
61201;DHT22;47065;52.898;6.992;2024-01-15T07:05:29;1.30;99.90
61201;DHT22;47065;52.898;6.992;2024-01-15T07:07:56;1.20;99.90
61201;DHT22;47065;52.898;6.992;2024-01-15T07:10:21;1.20;99.90
61201;DHT22;47065;52.898;6.992;2024-01-15T07:12:47;1.20;99.90
61201;DHT22;47065;52.898;6.992;2024-01-15T07:15:13;1.20;99.90
61201;DHT22;47065;52.898;6.992;2024-01-15T07:17:38;1.20;99.90
61201;DHT22;47065;52.898;6.992;2024-01-15T07:20:06;1.30;99.90
61201;DHT22;47065;52.898;6.992;2024-01-15T07:22:34;1.20;99.90
61201;DHT22;47065;52.898;6.992;2024-01-15T07:24:59;1.20;99.90
61201;DHT22;47065;52.898;6.992;2024-01-15T07:27:25;1.20;99.90
61201;DHT22;47065;52.898;6.992;2024-01-15T07:29:50;1.20;99.90
61201;DHT22;47065;52.898;6.992;2024-01-15T07:32:16;1.20;99.90
61201;DHT22;47065;52.898;6.992;2024-01-15T07:34:42;1.20;99.90
61201;DHT22;47065;52.898;6.992;2024-01-15T07:37:08;1.20;99.90
61201;DHT22;47065;52.898;6.992;2024-01-15T07:39:33;1.20;99.90
61201;DHT22;47065;52.898;6.992;2024-01-15T07:42:00;1.20;99.90
61201;DHT22;47065;52.898;6.992;2024-01-15T07:44:26;1.10;99.90
61201;DHT22;47065;52.898;6.992;2024-01-15T07:46:51;1.10;99.90
61201;DHT22;47065;52.898;6.992;2024-01-15T07:49:17;1.10;99.90
61201;DHT22;47065;52.898;6.992;2024-01-15T07:51:43;1.10;99.90
61201;DHT22;47065;52.898;6.992;2024-01-15T07:54:09;1.10;99.90
61201;DHT22;47065;52.898;6.992;2024-01-15T07:56:53;1.10;99.90
61201;DHT22;47065;52.898;6.992;2024-01-15T07:59:19;1.10;99.90
61201;DHT22;47065;52.898;6.992;2024-01-15T08:01:45;1.10;99.90
61201;DHT22;47065;52.898;6.992;2024-01-15T08:04:10;1.10;99.90
61201;DHT22;47065;52.898;6.992;2024-01-15T08:06:38;1.10;99.90
61201;DHT22;47065;52.898;6.992;2024-01-15T08:09:04;1.10;99.90
61201;DHT22;47065;52.898;6.992;2024-01-15T08:11:30;1.10;99.90
61201;DHT22;47065;52.898;6.992;2024-01-15T08:13:56;1.10;99.90
61201;DHT22;47065;52.898;6.992;2024-01-15T08:16:21;1.10;99.90
61201;DHT22;47065;52.898;6.992;2024-01-15T08:18:47;1.10;99.90
61201;DHT22;47065;52.898;6.992;2024-01-15T08:21:13;1.10;99.90
61201;DHT22;47065;52.898;6.992;2024-01-15T08:23:39;1.10;99.90
61201;DHT22;47065;52.898;6.992;2024-01-15T08:26:05;1.10;99.90
61201;DHT22;47065;52.898;6.992;2024-01-15T08:28:30;1.20;99.90
61201;DHT22;47065;52.898;6.992;2024-01-15T08:30:56;1.20;99.90
61201;DHT22;47065;52.898;6.992;2024-01-15T08:33:22;1.20;99.90
61201;DHT22;47065;52.898;6.992;2024-01-15T08:35:47;1.30;99.90
61201;DHT22;47065;52.898;6.992;2024-01-15T08:38:13;1.40;99.90
61201;DHT22;47065;52.898;6.992;2024-01-15T08:40:39;1.40;99.90
61201;DHT22;47065;52.898;6.992;2024-01-15T08:43:04;1.40;99.90
61201;DHT22;47065;52.898;6.992;2024-01-15T08:45:32;1.40;99.90
61201;DHT22;47065;52.898;6.992;2024-01-15T08:47:58;1.50;99.90
61201;DHT22;47065;52.898;6.992;2024-01-15T08:50:24;1.50;99.90
61201;DHT22;47065;52.898;6.992;2024-01-15T08:52:49;1.50;99.90
61201;DHT22;47065;52.898;6.992;2024-01-15T08:55:15;1.50;99.90
61201;DHT22;47065;52.898;6.992;2024-01-15T08:57:42;1.50;99.90
61201;DHT22;47065;52.898;6.992;2024-01-15T09:00:09;1.40;99.90
61201;DHT22;47065;52.898;6.992;2024-01-15T09:02:35;1.40;99.90
61201;DHT22;47065;52.898;6.992;2024-01-15T09:05:01;1.50;99.90
61201;DHT22;47065;52.898;6.992;2024-01-15T09:07:27;1.60;99.90
61201;DHT22;47065;52.898;6.992;2024-01-15T09:09:53;1.70;99.90
61201;DHT22;47065;52.898;6.992;2024-01-15T09:12:19;1.80;99.90
61201;DHT22;47065;52.898;6.992;2024-01-15T09:14:46;1.90;99.90
61201;DHT22;47065;52.898;6.992;2024-01-15T09:17:13;2.00;99.90
61201;DHT22;47065;52.898;6.992;2024-01-15T09:19:39;2.20;99.90
61201;DHT22;47065;52.898;6.992;2024-01-15T09:22:05;2.40;99.90
61201;DHT22;47065;52.898;6.992;2024-01-15T09:24:31;2.50;99.90
61201;DHT22;47065;52.898;6.992;2024-01-15T09:26:57;2.50;99.90
61201;DHT22;47065;52.898;6.992;2024-01-15T09:29:22;2.40;99.90
61201;DHT22;47065;52.898;6.992;2024-01-15T09:31:49;2.50;99.90
61201;DHT22;47065;52.898;6.992;2024-01-15T09:34:16;2.50;99.90
61201;DHT22;47065;52.898;6.992;2024-01-15T09:36:42;2.50;99.90
61201;DHT22;47065;52.898;6.992;2024-01-15T09:39:08;2.50;99.90
61201;DHT22;47065;52.898;6.992;2024-01-15T09:41:38;2.50;99.90
61201;DHT22;47065;52.898;6.992;2024-01-15T09:44:04;2.50;99.90
61201;DHT22;47065;52.898;6.992;2024-01-15T09:46:32;2.50;99.90
61201;DHT22;47065;52.898;6.992;2024-01-15T09:48:58;2.40;99.90
61201;DHT22;47065;52.898;6.992;2024-01-15T09:51:24;2.40;99.90
61201;DHT22;47065;52.898;6.992;2024-01-15T09:53:50;2.40;99.90
61201;DHT22;47065;52.898;6.992;2024-01-15T09:56:16;2.30;99.90
61201;DHT22;47065;52.898;6.992;2024-01-15T09:58:42;2.20;99.90
61201;DHT22;47065;52.898;6.992;2024-01-15T10:01:08;2.30;99.90
61201;DHT22;47065;52.898;6.992;2024-01-15T10:03:34;2.20;99.90
61201;DHT22;47065;52.898;6.992;2024-01-15T10:06:00;2.30;99.90
61201;DHT22;47065;52.898;6.992;2024-01-15T10:08:28;2.40;99.90
61201;DHT22;47065;52.898;6.992;2024-01-15T10:10:53;2.40;99.90
61201;DHT22;47065;52.898;6.992;2024-01-15T10:13:19;2.50;99.90
61201;DHT22;47065;52.898;6.992;2024-01-15T10:15:46;2.60;99.90
61201;DHT22;47065;52.898;6.992;2024-01-15T10:18:15;2.70;99.90
61201;DHT22;47065;52.898;6.992;2024-01-15T10:20:40;2.80;99.90
61201;DHT22;47065;52.898;6.992;2024-01-15T10:23:08;2.80;99.90
61201;DHT22;47065;52.898;6.992;2024-01-15T10:25:35;2.80;99.90
61201;DHT22;47065;52.898;6.992;2024-01-15T10:28:02;2.80;99.90
61201;DHT22;47065;52.898;6.992;2024-01-15T10:30:28;2.70;99.90
61201;DHT22;47065;52.898;6.992;2024-01-15T10:32:58;2.60;99.90
61201;DHT22;47065;52.898;6.992;2024-01-15T10:35:27;2.50;99.90
61201;DHT22;47065;52.898;6.992;2024-01-15T10:37:53;2.40;99.90
61201;DHT22;47065;52.898;6.992;2024-01-15T10:40:19;2.40;99.90
61201;DHT22;47065;52.898;6.992;2024-01-15T10:42:44;2.30;99.90
61201;DHT22;47065;52.898;6.992;2024-01-15T10:45:10;2.30;99.90
61201;DHT22;47065;52.898;6.992;2024-01-15T10:47:36;2.20;99.90
61201;DHT22;47065;52.898;6.992;2024-01-15T10:50:02;2.20;99.90
61201;DHT22;47065;52.898;6.992;2024-01-15T10:52:28;2.30;99.90
61201;DHT22;47065;52.898;6.992;2024-01-15T10:54:55;2.30;99.90
61201;DHT22;47065;52.898;6.992;2024-01-15T10:57:21;2.40;99.90
61201;DHT22;47065;52.898;6.992;2024-01-15T10:59:48;2.40;99.90
61201;DHT22;47065;52.898;6.992;2024-01-15T11:02:15;2.50;99.90
61201;DHT22;47065;52.898;6.992;2024-01-15T11:04:40;2.50;99.90
61201;DHT22;47065;52.898;6.992;2024-01-15T11:07:06;2.60;99.90
61201;DHT22;47065;52.898;6.992;2024-01-15T11:09:32;2.70;99.90
61201;DHT22;47065;52.898;6.992;2024-01-15T11:12:15;2.80;99.90
61201;DHT22;47065;52.898;6.992;2024-01-15T11:14:46;2.80;99.90
61201;DHT22;47065;52.898;6.992;2024-01-15T11:17:13;2.80;99.90
61201;DHT22;47065;52.898;6.992;2024-01-15T11:25:04;2.60;99.90
61201;DHT22;47065;52.898;6.992;2024-01-15T11:27:42;2.60;99.90
61201;DHT22;47065;52.898;6.992;2024-01-15T11:30:09;2.60;99.90
61201;DHT22;47065;52.898;6.992;2024-01-15T11:32:36;2.60;99.90
61201;DHT22;47065;52.898;6.992;2024-01-15T11:35:02;2.70;99.90
61201;DHT22;47065;52.898;6.992;2024-01-15T11:37:56;2.70;99.90
61201;DHT22;47065;52.898;6.992;2024-01-15T11:40:21;2.70;99.90
61201;DHT22;47065;52.898;6.992;2024-01-15T11:42:48;2.60;99.90
61201;DHT22;47065;52.898;6.992;2024-01-15T11:45:19;2.50;99.90
61201;DHT22;47065;52.898;6.992;2024-01-15T11:50:33;2.40;99.90
61201;DHT22;47065;52.898;6.992;2024-01-15T11:53:01;2.40;99.90
61201;DHT22;47065;52.898;6.992;2024-01-15T11:55:31;2.40;99.90
61201;DHT22;47065;52.898;6.992;2024-01-15T11:58:01;2.40;99.90
61201;DHT22;47065;52.898;6.992;2024-01-15T12:00:27;2.40;99.90
61201;DHT22;47065;52.898;6.992;2024-01-15T12:02:53;2.30;99.90
61201;DHT22;47065;52.898;6.992;2024-01-15T12:05:20;2.30;99.90
61201;DHT22;47065;52.898;6.992;2024-01-15T12:07:49;2.30;99.90
61201;DHT22;47065;52.898;6.992;2024-01-15T12:10:19;2.20;99.90
61201;DHT22;47065;52.898;6.992;2024-01-15T12:12:58;2.30;99.90
61201;DHT22;47065;52.898;6.992;2024-01-15T12:15:26;2.30;99.90
61201;DHT22;47065;52.898;6.992;2024-01-15T12:17:53;2.30;99.90
61201;DHT22;47065;52.898;6.992;2024-01-15T12:20:20;2.20;99.90
61201;DHT22;47065;52.898;6.992;2024-01-15T12:22:45;2.20;99.90
61201;DHT22;47065;52.898;6.992;2024-01-15T12:25:11;2.20;99.90
61201;DHT22;47065;52.898;6.992;2024-01-15T12:27:37;2.20;99.90
61201;DHT22;47065;52.898;6.992;2024-01-15T12:30:03;2.20;99.90
61201;DHT22;47065;52.898;6.992;2024-01-15T12:32:29;2.30;99.90
61201;DHT22;47065;52.898;6.992;2024-01-15T12:34:55;2.30;99.90
61201;DHT22;47065;52.898;6.992;2024-01-15T12:37:21;2.30;99.90
61201;DHT22;47065;52.898;6.992;2024-01-15T12:39:47;2.30;99.90
61201;DHT22;47065;52.898;6.992;2024-01-15T12:42:16;2.20;99.90
61201;DHT22;47065;52.898;6.992;2024-01-15T12:44:43;2.10;99.90
61201;DHT22;47065;52.898;6.992;2024-01-15T12:47:10;2.00;99.90
61201;DHT22;47065;52.898;6.992;2024-01-15T12:49:37;1.90;99.90
61201;DHT22;47065;52.898;6.992;2024-01-15T12:52:03;1.80;99.90
61201;DHT22;47065;52.898;6.992;2024-01-15T12:54:29;1.70;99.90
61201;DHT22;47065;52.898;6.992;2024-01-15T12:56:54;1.70;99.90
61201;DHT22;47065;52.898;6.992;2024-01-15T12:59:20;1.70;99.90
61201;DHT22;47065;52.898;6.992;2024-01-15T13:01:46;1.70;99.90
61201;DHT22;47065;52.898;6.992;2024-01-15T13:04:24;1.70;99.90
61201;DHT22;47065;52.898;6.992;2024-01-15T13:06:53;1.70;99.90
61201;DHT22;47065;52.898;6.992;2024-01-15T13:09:19;1.70;99.90
61201;DHT22;47065;52.898;6.992;2024-01-15T13:11:45;1.70;99.90
61201;DHT22;47065;52.898;6.992;2024-01-15T13:14:11;1.60;99.90
61201;DHT22;47065;52.898;6.992;2024-01-15T13:16:42;1.70;99.90
61201;DHT22;47065;52.898;6.992;2024-01-15T13:19:09;1.70;99.90
61201;DHT22;47065;52.898;6.992;2024-01-15T13:21:42;1.70;99.90
61201;DHT22;47065;52.898;6.992;2024-01-15T13:24:08;1.80;99.90
61201;DHT22;47065;52.898;6.992;2024-01-15T13:26:35;1.90;99.90
61201;DHT22;47065;52.898;6.992;2024-01-15T13:29:03;2.00;99.90
61201;DHT22;47065;52.898;6.992;2024-01-15T13:31:33;2.00;99.90
61201;DHT22;47065;52.898;6.992;2024-01-15T13:33:59;2.10;99.90
61201;DHT22;47065;52.898;6.992;2024-01-15T13:36:27;2.20;99.90
61201;DHT22;47065;52.898;6.992;2024-01-15T13:38:53;2.30;99.90
61201;DHT22;47065;52.898;6.992;2024-01-15T13:41:20;2.30;99.90
61201;DHT22;47065;52.898;6.992;2024-01-15T13:43:55;2.30;99.90
61201;DHT22;47065;52.898;6.992;2024-01-15T13:46:25;2.30;99.90
61201;DHT22;47065;52.898;6.992;2024-01-15T13:48:53;2.30;99.90
61201;DHT22;47065;52.898;6.992;2024-01-15T13:51:23;2.20;99.90
61201;DHT22;47065;52.898;6.992;2024-01-15T13:53:49;2.20;99.90
61201;DHT22;47065;52.898;6.992;2024-01-15T13:56:16;2.10;99.90
61201;DHT22;47065;52.898;6.992;2024-01-15T13:58:42;2.20;99.90
61201;DHT22;47065;52.898;6.992;2024-01-15T14:01:08;2.10;99.90
61201;DHT22;47065;52.898;6.992;2024-01-15T14:03:34;2.10;99.90
61201;DHT22;47065;52.898;6.992;2024-01-15T14:06:00;2.10;99.90
61201;DHT22;47065;52.898;6.992;2024-01-15T14:08:28;2.10;99.90
61201;DHT22;47065;52.898;6.992;2024-01-15T14:10:54;2.10;99.90
61201;DHT22;47065;52.898;6.992;2024-01-15T14:13:21;2.10;99.90
61201;DHT22;47065;52.898;6.992;2024-01-15T14:15:47;2.10;99.90
61201;DHT22;47065;52.898;6.992;2024-01-15T14:18:16;2.10;99.90
61201;DHT22;47065;52.898;6.992;2024-01-15T14:20:41;2.10;99.90
61201;DHT22;47065;52.898;6.992;2024-01-15T14:23:08;2.10;99.90
61201;DHT22;47065;52.898;6.992;2024-01-15T14:25:33;2.10;99.90
61201;DHT22;47065;52.898;6.992;2024-01-15T14:28:00;2.00;99.90
61201;DHT22;47065;52.898;6.992;2024-01-15T14:30:25;2.00;99.90
61201;DHT22;47065;52.898;6.992;2024-01-15T14:32:51;1.90;99.90
61201;DHT22;47065;52.898;6.992;2024-01-15T14:35:16;2.00;99.90
61201;DHT22;47065;52.898;6.992;2024-01-15T14:37:42;2.10;99.90
61201;DHT22;47065;52.898;6.992;2024-01-15T14:40:08;2.10;99.90
61201;DHT22;47065;52.898;6.992;2024-01-15T14:42:35;2.10;99.90
61201;DHT22;47065;52.898;6.992;2024-01-15T14:45:05;1.90;99.90
61201;DHT22;47065;52.898;6.992;2024-01-15T14:47:40;1.80;99.90
61201;DHT22;47065;52.898;6.992;2024-01-15T14:50:09;1.70;99.90
61201;DHT22;47065;52.898;6.992;2024-01-15T14:52:38;1.60;99.90
61201;DHT22;47065;52.898;6.992;2024-01-15T14:55:05;1.50;99.90
61201;DHT22;47065;52.898;6.992;2024-01-15T14:57:30;1.50;99.90
61201;DHT22;47065;52.898;6.992;2024-01-15T14:59:56;1.40;99.90
61201;DHT22;47065;52.898;6.992;2024-01-15T15:02:23;1.40;99.90
61201;DHT22;47065;52.898;6.992;2024-01-15T15:04:49;1.40;99.90
61201;DHT22;47065;52.898;6.992;2024-01-15T15:07:14;1.40;99.90
61201;DHT22;47065;52.898;6.992;2024-01-15T15:09:40;1.30;99.90
61201;DHT22;47065;52.898;6.992;2024-01-15T15:12:06;1.40;99.90
61201;DHT22;47065;52.898;6.992;2024-01-15T15:14:32;1.40;99.90
61201;DHT22;47065;52.898;6.992;2024-01-15T15:17:04;1.40;99.90
61201;DHT22;47065;52.898;6.992;2024-01-15T15:19:30;1.40;99.90
61201;DHT22;47065;52.898;6.992;2024-01-15T15:21:55;1.40;99.90
61201;DHT22;47065;52.898;6.992;2024-01-15T15:24:23;1.40;99.90
61201;DHT22;47065;52.898;6.992;2024-01-15T15:26:48;1.50;99.90
61201;DHT22;47065;52.898;6.992;2024-01-15T15:29:14;1.50;99.90
61201;DHT22;47065;52.898;6.992;2024-01-15T15:31:42;1.50;99.90
61201;DHT22;47065;52.898;6.992;2024-01-15T15:34:08;1.50;99.90
61201;DHT22;47065;52.898;6.992;2024-01-15T15:36:34;1.50;99.90
61201;DHT22;47065;52.898;6.992;2024-01-15T15:39:00;1.50;99.90
61201;DHT22;47065;52.898;6.992;2024-01-15T15:41:25;1.50;99.90
61201;DHT22;47065;52.898;6.992;2024-01-15T15:43:53;1.50;99.90
61201;DHT22;47065;52.898;6.992;2024-01-15T15:46:19;1.50;99.90
61201;DHT22;47065;52.898;6.992;2024-01-15T15:48:44;1.50;99.90